createdAt,value
2024-02-29T00:01:21.940Z,99217.47
2024-02-29T00:03:50.519Z,99225.81
2024-02-29T00:06:17.696Z,99226.31
2024-02-29T00:08:44.658Z,99223.47
2024-02-29T00:11:12.368Z,99220.28
2024-02-29T00:13:39.345Z,99211.84
2024-02-29T00:16:06.406Z,99214.09
2024-02-29T00:18:33.754Z,99216.06
2024-02-29T00:21:02.294Z,99226.44
2024-02-29T00:23:29.317Z,99231.25
2024-02-29T00:25:56.411Z,99213.09
2024-02-29T00:28:23.890Z,99214.22
2024-02-29T00:30:51.042Z,99219.13
2024-02-29T00:33:18.404Z,99223.63
2024-02-29T00:35:49.255Z,99217.28
2024-02-29T00:38:18.374Z,99214.09
2024-02-29T00:40:45.358Z,99220.50
2024-02-29T00:43:12.890Z,99218.59
2024-02-29T00:45:39.992Z,99221.78
2024-02-29T00:48:07.670Z,99224.84
2024-02-29T00:50:34.816Z,99234.94
2024-02-29T00:53:01.833Z,99223.13
2024-02-29T00:55:30.186Z,99224.09
2024-02-29T00:57:57.171Z,99220.28
2024-02-29T01:00:24.297Z,99217.25
2024-02-29T01:02:51.268Z,99219.03
2024-02-29T01:05:18.721Z,99212.66
2024-02-29T01:07:45.795Z,99218.56
2024-02-29T01:10:13.242Z,99222.88
2024-02-29T01:12:43.213Z,99217.78
2024-02-29T01:15:11.280Z,99216.97
2024-02-29T01:17:38.683Z,99218.09
2024-02-29T01:20:06.345Z,99219.84
2024-02-29T01:22:33.443Z,99212.19
2024-02-29T01:25:00.513Z,99218.28
2024-02-29T01:27:27.943Z,99218.44
2024-02-29T01:29:56.753Z,99224.66
2024-02-29T01:32:28.208Z,99236.78
2024-02-29T01:34:57.197Z,99227.53
2024-02-29T01:37:24.229Z,99240.63
2024-02-29T01:39:51.247Z,99224.06
2024-02-29T01:42:18.624Z,99238.72
2024-02-29T01:44:54.134Z,99231.41
2024-02-29T01:47:22.725Z,99233.19
2024-02-29T01:49:51.047Z,99223.78
2024-02-29T01:52:21.153Z,99223.13
2024-02-29T01:54:51.424Z,99224.09
2024-02-29T01:57:19.396Z,99222.53
2024-02-29T01:59:51.212Z,99227.31
2024-02-29T02:02:18.692Z,99222.38
2024-02-29T02:04:47.156Z,99228.44
2024-02-29T02:07:14.845Z,99223.50
2024-02-29T02:09:43.740Z,99225.41
2024-02-29T02:12:13.332Z,99223.03
2024-02-29T02:14:40.843Z,99228.47
2024-02-29T02:17:08.347Z,99233.06
2024-02-29T02:19:35.795Z,99227.53
2024-02-29T02:22:05.600Z,99225.91
2024-02-29T02:24:33.142Z,99226.06
2024-02-29T02:27:00.124Z,99224.81
2024-02-29T02:29:27.265Z,99224.97
2024-02-29T02:31:55.053Z,99228.47
2024-02-29T02:34:22.070Z,99224.50
2024-02-29T02:36:49.108Z,99228.19
2024-02-29T02:39:18.497Z,99219.06
2024-02-29T02:41:49.383Z,99230.25
2024-02-29T02:44:16.514Z,99227.84
2024-02-29T02:46:43.478Z,99223.06
2024-02-29T02:49:10.711Z,99225.00
2024-02-29T02:51:37.746Z,99223.38
2024-02-29T02:54:04.753Z,99230.41
2024-02-29T02:56:33.102Z,99233.13
2024-02-29T02:59:00.228Z,99234.72
2024-02-29T03:01:27.193Z,99237.41
2024-02-29T03:03:54.469Z,99244.28
2024-02-29T03:06:21.490Z,99236.00
2024-02-29T03:08:48.841Z,99248.56
2024-02-29T03:11:15.967Z,99241.53
2024-02-29T03:13:44.431Z,99237.59
2024-02-29T03:16:11.465Z,99243.94
2024-02-29T03:18:38.784Z,99246.97
2024-02-29T03:21:07.384Z,99239.47
2024-02-29T03:23:34.557Z,99250.47
2024-02-29T03:26:01.539Z,99255.25
2024-02-29T03:28:28.893Z,99255.53
2024-02-29T03:30:58.102Z,99251.88
2024-02-29T03:33:25.169Z,99261.59
2024-02-29T03:35:52.364Z,99261.88
2024-02-29T03:38:19.539Z,99256.13
2024-02-29T03:40:46.530Z,99258.03
2024-02-29T03:43:13.839Z,99257.56
2024-02-29T03:45:41.257Z,99265.34
2024-02-29T03:48:09.792Z,99262.94
2024-02-29T03:50:36.825Z,99265.50
2024-02-29T03:53:03.917Z,99262.19
2024-02-29T03:55:31.468Z,99262.78
2024-02-29T03:57:58.685Z,99270.13
2024-02-29T04:00:25.678Z,99273.31
2024-02-29T04:02:52.678Z,99263.88
2024-02-29T04:05:25.495Z,99256.06
2024-02-29T04:07:54.726Z,99263.41
2024-02-29T04:10:21.929Z,99263.22
2024-02-29T04:12:49.559Z,99265.63
2024-02-29T04:15:17.701Z,99269.59
2024-02-29T04:17:44.754Z,99270.41
2024-02-29T04:20:11.803Z,99269.44
2024-02-29T04:22:41.474Z,99278.66
2024-02-29T04:25:12.096Z,99268.47
2024-02-29T04:27:39.796Z,99279.47
2024-02-29T04:30:10.833Z,99270.25
2024-02-29T04:32:39.455Z,99280.28
2024-02-29T04:35:07.345Z,99279.47
2024-02-29T04:37:34.583Z,99280.72
2024-02-29T04:40:06.750Z,99285.06
2024-02-29T04:42:35.318Z,99287.78
2024-02-29T04:45:02.365Z,99283.00
2024-02-29T04:47:29.928Z,99289.03
2024-02-29T04:49:56.968Z,99280.28
2024-02-29T04:52:23.927Z,99281.06
2024-02-29T04:54:51.049Z,99280.13
2024-02-29T04:57:19.785Z,99288.56
2024-02-29T04:59:47.373Z,99285.06
2024-02-29T05:02:14.670Z,99286.66
2024-02-29T05:04:41.735Z,99289.03
2024-02-29T05:07:08.934Z,99286.47
2024-02-29T05:09:37.916Z,99284.38
2024-02-29T05:12:05.462Z,99284.22
2024-02-29T05:14:33.961Z,99292.34
2024-02-29T05:17:01.090Z,99291.88
2024-02-29T05:19:28.093Z,99295.19
2024-02-29T05:21:56.659Z,99294.41
2024-02-29T05:24:23.862Z,99296.00
2024-02-29T05:26:51.226Z,99295.84
2024-02-29T05:29:18.241Z,99297.41
2024-02-29T05:31:53.109Z,99298.69
2024-02-29T05:34:22.164Z,99298.69
2024-02-29T05:36:49.484Z,99293.63
2024-02-29T05:39:17.136Z,99295.06
2024-02-29T05:41:44.204Z,99288.19
2024-02-29T05:44:11.459Z,99286.13
2024-02-29T05:46:38.539Z,99286.59
2024-02-29T05:49:06.946Z,99278.56
2024-02-29T05:51:34.171Z,99276.50
2024-02-29T05:54:01.208Z,99278.88
2024-02-29T05:56:28.671Z,99282.06
2024-02-29T05:58:57.164Z,99285.56
2024-02-29T06:01:24.256Z,99297.72
2024-02-29T06:03:51.401Z,99296.44
2024-02-29T06:06:22.577Z,99285.31
2024-02-29T06:08:49.719Z,99289.53
2024-02-29T06:11:17.156Z,99279.19
2024-02-29T06:13:44.514Z,99276.63
2024-02-29T06:16:12.943Z,99278.66
2024-02-29T06:18:40.068Z,99284.06
2024-02-29T06:21:07.334Z,99289.59
2024-02-29T06:23:37.916Z,99291.50
2024-02-29T06:26:05.456Z,99291.28
2024-02-29T06:28:32.779Z,99296.66
2024-02-29T06:30:59.918Z,99298.81
2024-02-29T06:33:27.042Z,99303.97
2024-02-29T06:35:54.155Z,99296.75
2024-02-29T06:38:22.145Z,99298.88
2024-02-29T06:40:50.518Z,99294.38
2024-02-29T06:43:18.900Z,99297.84
2024-02-29T06:45:50.629Z,99295.88
2024-02-29T06:48:18.805Z,99302.28
2024-02-29T06:50:46.311Z,99305.19
2024-02-29T06:53:13.993Z,99299.47
2024-02-29T06:55:41.103Z,99312.91
2024-02-29T06:58:09.525Z,99304.41
2024-02-29T07:00:36.713Z,99298.16
2024-02-29T07:03:04.252Z,99307.34
2024-02-29T07:05:34.225Z,99298.09
2024-02-29T07:08:03.443Z,99300.16
2024-02-29T07:10:30.531Z,99304.09
2024-02-29T07:12:57.783Z,99291.78
2024-02-29T07:15:26.370Z,99310.75
2024-02-29T07:17:53.460Z,99310.09
2024-02-29T07:20:20.536Z,99302.81
2024-02-29T07:22:48.451Z,99297.06
2024-02-29T07:25:16.023Z,99295.75
2024-02-29T07:27:46.069Z,99289.44
2024-02-29T07:30:13.570Z,99292.91
2024-02-29T07:32:41.988Z,99294.78
2024-02-29T07:35:13.189Z,99302.81
2024-02-29T07:37:40.828Z,99300.38
2024-02-29T07:40:08.559Z,99297.47
2024-02-29T07:42:35.736Z,99307.63
2024-02-29T07:45:03.628Z,99302.44
2024-02-29T07:47:30.612Z,99292.50
2024-02-29T07:49:58.995Z,99294.53
2024-02-29T07:52:26.049Z,99302.72
2024-02-29T07:54:53.174Z,99304.75
2024-02-29T07:57:20.382Z,99297.50
2024-02-29T07:59:47.379Z,99285.19
2024-02-29T08:02:14.377Z,99295.31
2024-02-29T08:04:41.758Z,99284.56
2024-02-29T08:07:12.270Z,99286.22
2024-02-29T08:09:39.389Z,99285.34
2024-02-29T08:12:07.109Z,99284.81
2024-02-29T08:14:34.196Z,99279.75
2024-02-29T08:17:01.194Z,99283.75
2024-02-29T08:19:28.355Z,99280.81
2024-02-29T08:21:55.308Z,99281.63
2024-02-29T08:24:23.652Z,99285.59
2024-02-29T08:26:50.608Z,99282.94
2024-02-29T08:29:17.855Z,99282.84
2024-02-29T08:31:44.970Z,99276.72
2024-02-29T08:34:12.198Z,99279.38
2024-02-29T08:36:39.447Z,99273.34
2024-02-29T08:39:06.548Z,99284.09
2024-02-29T08:41:34.872Z,99277.56
2024-02-29T08:44:01.875Z,99285.63
2024-02-29T08:46:28.946Z,99278.00
2024-02-29T08:48:56.397Z,99284.03
2024-02-29T08:51:23.346Z,99271.31
2024-02-29T08:53:50.362Z,99277.19
2024-02-29T08:56:17.420Z,99283.66
2024-02-29T08:58:45.849Z,99283.75
2024-02-29T09:01:13.282Z,99275.94
2024-02-29T09:03:40.303Z,99271.78
2024-02-29T09:06:07.350Z,99273.47
2024-02-29T09:08:34.338Z,99266.88
2024-02-29T09:11:01.502Z,99271.91
2024-02-29T09:13:34.801Z,99281.22
2024-02-29T09:16:04.987Z,99267.66
2024-02-29T09:18:32.432Z,99264.78
2024-02-29T09:20:59.496Z,99263.31
2024-02-29T09:23:27.491Z,99265.91
2024-02-29T09:25:55.066Z,99277.81
2024-02-29T09:28:22.746Z,99267.75
2024-02-29T09:30:50.047Z,99262.25
2024-02-29T09:33:18.480Z,99260.66
2024-02-29T09:35:45.504Z,99255.72
2024-02-29T09:38:15.388Z,99258.47
2024-02-29T09:40:49.490Z,99248.78
2024-02-29T09:43:20.816Z,99251.34
2024-02-29T09:45:49.558Z,99241.84
2024-02-29T09:48:18.218Z,99248.72
2024-02-29T09:50:45.157Z,99243.19
2024-02-29T09:53:15.309Z,99243.78
2024-02-29T09:55:44.084Z,99236.00
2024-02-29T09:58:18.200Z,99238.34
2024-02-29T10:00:45.534Z,99229.06
2024-02-29T10:03:16.171Z,99226.50
2024-02-29T10:05:44.948Z,99229.28
2024-02-29T10:08:12.073Z,99240.38
2024-02-29T10:10:39.517Z,99225.06
2024-02-29T10:13:07.368Z,99220.91
2024-02-29T10:15:37.496Z,99214.59
2024-02-29T10:18:04.630Z,99218.78
2024-02-29T10:20:33.581Z,99210.50
2024-02-29T10:23:02.114Z,99215.06
2024-02-29T10:25:29.282Z,99209.09
2024-02-29T10:28:06.316Z,99214.22
2024-02-29T10:30:36.463Z,99193.59
2024-02-29T10:33:03.742Z,99201.13
2024-02-29T10:35:31.626Z,99195.56
2024-02-29T10:37:58.904Z,99188.22
2024-02-29T10:40:27.614Z,99186.22
2024-02-29T10:42:57.895Z,99192.53
2024-02-29T10:45:27.756Z,99193.47
2024-02-29T10:48:02.206Z,99191.84
2024-02-29T10:50:33.248Z,99193.78
2024-02-29T10:53:13.280Z,99184.81
2024-02-29T10:55:50.809Z,99181.75
2024-02-29T10:58:24.845Z,99184.47
2024-02-29T11:00:52.260Z,99169.13
2024-02-29T11:03:19.876Z,99162.53
2024-02-29T11:05:47.695Z,99172.66
2024-02-29T11:08:15.472Z,99161.13
2024-02-29T11:10:47.378Z,99165.44
2024-02-29T11:13:18.861Z,99155.69
2024-02-29T11:15:46.208Z,99161.22
2024-02-29T11:18:21.576Z,99153.06
2024-02-29T11:20:48.620Z,99150.59
2024-02-29T11:23:17.245Z,99142.63
2024-02-29T11:25:45.716Z,99149.00
2024-02-29T11:28:13.300Z,99146.63
2024-02-29T11:30:42.324Z,99134.28
2024-02-29T11:33:12.424Z,99135.00
2024-02-29T11:35:43.568Z,99126.38
2024-02-29T11:38:17.550Z,99122.94
2024-02-29T11:40:50.574Z,99119.56
2024-02-29T11:43:17.652Z,99122.94
2024-02-29T11:45:44.908Z,99120.56
2024-02-29T11:48:11.935Z,99110.03
2024-02-29T11:50:38.871Z,99111.53
2024-02-29T11:53:05.982Z,99117.53
2024-02-29T11:55:35.509Z,99100.88
2024-02-29T11:58:05.167Z,99109.47
2024-02-29T12:00:32.278Z,99103.97
2024-02-29T12:02:59.263Z,99101.75
2024-02-29T12:05:26.518Z,99100.84
2024-02-29T12:07:53.612Z,99084.44
2024-02-29T12:10:20.690Z,99094.22
2024-02-29T12:12:47.804Z,99090.53
2024-02-29T12:15:16.604Z,99080.97
2024-02-29T12:17:44.596Z,99081.97
2024-02-29T12:20:17.962Z,99085.00
2024-02-29T12:22:47.686Z,99071.84
2024-02-29T12:25:15.244Z,99072.97
2024-02-29T12:27:43.995Z,99069.53
2024-02-29T12:30:13.031Z,99064.03
2024-02-29T12:32:43.228Z,99063.69
2024-02-29T12:35:10.300Z,99064.59
2024-02-29T12:37:38.352Z,99064.34
2024-02-29T12:40:08.403Z,99067.19
2024-02-29T12:42:35.736Z,99059.66
2024-02-29T12:45:03.326Z,99061.69
2024-02-29T12:47:30.300Z,99050.66
2024-02-29T12:49:58.737Z,99044.47
2024-02-29T12:52:25.755Z,99062.91
2024-02-29T12:54:52.831Z,99055.38
2024-02-29T12:57:20.307Z,99053.34
2024-02-29T12:59:47.319Z,99054.16
2024-02-29T13:02:14.770Z,99050.00
2024-02-29T13:04:42.042Z,99040.88
2024-02-29T13:07:11.111Z,99043.13
2024-02-29T13:09:38.375Z,99036.38
2024-02-29T13:12:05.908Z,99036.13
2024-02-29T13:14:32.894Z,99031.97
2024-02-29T13:16:59.918Z,99032.19
2024-02-29T13:19:27.064Z,99025.03
2024-02-29T13:21:54.137Z,99028.97
2024-02-29T13:24:22.576Z,99024.38
2024-02-29T13:26:49.603Z,99018.75
2024-02-29T13:29:16.608Z,99022.69
2024-02-29T13:31:43.768Z,99012.28
2024-02-29T13:34:10.791Z,99014.78
2024-02-29T13:36:37.781Z,99011.88
2024-02-29T13:39:05.103Z,99012.78
2024-02-29T13:41:33.660Z,99014.56
2024-02-29T13:44:00.596Z,99006.94
2024-02-29T13:46:29.625Z,98997.81
2024-02-29T13:49:20.066Z,98990.75
2024-02-29T13:51:43.729Z,98987.72
2024-02-29T13:54:10.775Z,98987.63
2024-02-29T13:56:39.124Z,98995.69
2024-02-29T13:59:06.394Z,98990.31
2024-02-29T14:01:33.617Z,98986.16
2024-02-29T14:04:00.812Z,98991.41
2024-02-29T14:06:27.907Z,98985.34
2024-02-29T14:08:54.912Z,98971.72
2024-02-29T14:11:22.005Z,98971.28
2024-02-29T14:13:51.510Z,98973.50
2024-02-29T14:16:18.625Z,98968.69
2024-02-29T14:18:45.780Z,98973.50
2024-02-29T14:21:16.309Z,98966.41
2024-02-29T14:23:43.562Z,98966.28
2024-02-29T14:26:10.791Z,98959.66
2024-02-29T14:28:37.813Z,98960.19
2024-02-29T14:31:08.465Z,98959.16
2024-02-29T14:33:35.847Z,98957.84
2024-02-29T14:36:02.909Z,98950.28
2024-02-29T14:38:32.137Z,98958.06
2024-02-29T14:40:59.229Z,98952.34
2024-02-29T14:43:26.891Z,98951.53
2024-02-29T14:45:54.162Z,98943.44
2024-02-29T14:48:22.688Z,98938.47
2024-02-29T14:50:49.828Z,98941.31
2024-02-29T14:53:17.058Z,98929.34
2024-02-29T14:55:44.064Z,98930.59
2024-02-29T14:58:12.022Z,98933.41
2024-02-29T15:00:39.051Z,98933.09
2024-02-29T15:03:06.077Z,98918.03
2024-02-29T15:05:36.001Z,98921.88
2024-02-29T15:08:06.541Z,98915.31
2024-02-29T15:10:36.778Z,98915.00
2024-02-29T15:13:04.103Z,98911.31
2024-02-29T15:15:31.091Z,98915.34
2024-02-29T15:17:58.310Z,98914.22
2024-02-29T15:20:25.307Z,98923.47
2024-02-29T15:22:53.633Z,98925.97
2024-02-29T15:25:25.031Z,98917.53
2024-02-29T15:27:56.626Z,98927.22
2024-02-29T15:30:23.791Z,98932.19
2024-02-29T15:32:53.496Z,98926.34
2024-02-29T15:35:20.546Z,98921.47
2024-02-29T15:37:47.632Z,98932.16
2024-02-29T15:40:16.157Z,98939.25
2024-02-29T15:42:43.908Z,98937.00
2024-02-29T15:45:13.987Z,98935.47
2024-02-29T15:47:41.465Z,98930.19
2024-02-29T15:50:09.545Z,98938.22
2024-02-29T15:52:36.682Z,98945.28
2024-02-29T15:55:04.453Z,98957.06
2024-02-29T15:57:32.951Z,98954.75
2024-02-29T16:00:00.034Z,98961.69
2024-02-29T16:02:28.363Z,98968.53
2024-02-29T16:04:57.618Z,98973.75
2024-02-29T16:07:24.695Z,98972.06
2024-02-29T16:09:51.779Z,98969.44
2024-02-29T16:12:19.346Z,98964.88
2024-02-29T16:14:49.539Z,98948.84
2024-02-29T16:17:16.688Z,98939.81
2024-02-29T16:19:43.606Z,98943.84
2024-02-29T16:22:10.617Z,98948.06
2024-02-29T16:24:37.923Z,98957.00
2024-02-29T16:27:05.278Z,98954.69
2024-02-29T16:29:32.340Z,98963.72
2024-02-29T16:32:02.750Z,98957.81
2024-02-29T16:34:29.809Z,98960.03
2024-02-29T16:36:57.161Z,98963.84
2024-02-29T16:39:24.241Z,98968.41
2024-02-29T16:41:51.656Z,98967.69
2024-02-29T16:44:21.727Z,98972.69
2024-02-29T16:46:49.251Z,98972.31
2024-02-29T16:49:17.836Z,98967.78
2024-02-29T16:51:45.077Z,98958.88
2024-02-29T16:54:13.598Z,98957.13
2024-02-29T16:56:43.691Z,98962.47
2024-02-29T16:59:12.100Z,98955.16
2024-02-29T17:01:41.117Z,98953.00
2024-02-29T17:04:08.602Z,98949.28
2024-02-29T17:06:37.580Z,98958.22
2024-02-29T17:09:04.932Z,98960.41
2024-02-29T17:11:32.081Z,98958.03
2024-02-29T17:13:59.333Z,98963.59
2024-02-29T17:16:26.502Z,98961.22
2024-02-29T17:18:53.555Z,98970.97
2024-02-29T17:21:26.018Z,98960.88
2024-02-29T17:23:54.474Z,98958.72
2024-02-29T17:26:21.904Z,98968.66
2024-02-29T17:28:52.265Z,98955.59
2024-02-29T17:31:20.659Z,98955.03
2024-02-29T17:33:48.257Z,98961.75
2024-02-29T17:36:15.734Z,98963.38
2024-02-29T17:38:42.708Z,98967.94
2024-02-29T17:41:12.772Z,98968.94
2024-02-29T17:43:40.375Z,98966.00
2024-02-29T17:46:07.488Z,98971.59
2024-02-29T17:48:34.532Z,98962.13
2024-02-29T17:51:05.075Z,98962.91
2024-02-29T17:53:33.372Z,98964.09
2024-02-29T17:56:00.586Z,98964.47
2024-02-29T17:58:29.090Z,98961.72
2024-02-29T18:00:57.760Z,98964.06
2024-02-29T18:03:24.942Z,98974.56
2024-02-29T18:05:52.045Z,98980.50
2024-02-29T18:08:19.165Z,98976.75
2024-02-29T18:10:46.226Z,98976.75
2024-02-29T18:13:13.318Z,98974.38
2024-02-29T18:15:41.934Z,98981.69
2024-02-29T18:18:11.459Z,98985.63
2024-02-29T18:20:38.551Z,98974.94
2024-02-29T18:23:05.690Z,98966.44
2024-02-29T18:25:32.715Z,98974.72
2024-02-29T18:28:00.155Z,98969.38
2024-02-29T18:30:27.123Z,98968.16
2024-02-29T18:32:55.594Z,98978.66
2024-02-29T18:35:22.696Z,98967.34
2024-02-29T18:37:49.988Z,98962.81
2024-02-29T18:40:17.181Z,98964.38
2024-02-29T18:42:44.378Z,98966.69
2024-02-29T18:45:11.837Z,98970.25
2024-02-29T18:47:39.208Z,98969.84
2024-02-29T18:50:08.649Z,98965.59
2024-02-29T18:52:35.733Z,98962.47
2024-02-29T18:55:02.898Z,98968.06
2024-02-29T18:57:29.955Z,98966.91
2024-02-29T18:59:56.951Z,98965.75
2024-02-29T19:02:23.966Z,98977.25
2024-02-29T19:04:52.605Z,98972.50
2024-02-29T19:07:21.866Z,98964.03
2024-02-29T19:09:49.714Z,98957.53
2024-02-29T19:12:16.806Z,98953.38
2024-02-29T19:14:43.767Z,98943.09
2024-02-29T19:17:10.781Z,98955.34
2024-02-29T19:19:37.765Z,98946.84
2024-02-29T19:22:05.216Z,98950.78
2024-02-29T19:24:33.691Z,98946.44
2024-02-29T19:27:00.785Z,98938.56
2024-02-29T19:29:29.945Z,98943.50
2024-02-29T19:31:56.924Z,98944.72
2024-02-29T19:34:24.497Z,98946.13
2024-02-29T19:36:51.679Z,98945.72
2024-02-29T19:39:18.743Z,98945.94
2024-02-29T19:41:47.151Z,98952.47
2024-02-29T19:44:14.310Z,98952.88
2024-02-29T19:46:44.780Z,98968.94
2024-02-29T19:49:11.837Z,98976.22
2024-02-29T19:51:40.064Z,98965.00
2024-02-29T19:54:07.116Z,98964.38
2024-02-29T19:56:34.119Z,98947.75
2024-02-29T19:59:02.497Z,98945.59
2024-02-29T20:01:29.651Z,98957.25
2024-02-29T20:03:56.762Z,98954.47
2024-02-29T20:06:23.976Z,98957.84
2024-02-29T20:08:51.165Z,98952.91
2024-02-29T20:11:18.251Z,98950.91
2024-02-29T20:13:45.457Z,98950.91
2024-02-29T20:16:14.050Z,98952.09
2024-02-29T20:18:41.265Z,98947.16
2024-02-29T20:21:08.972Z,98956.03
2024-02-29T20:23:36.005Z,98961.56
2024-02-29T20:26:03.187Z,98945.53
2024-02-29T20:28:31.772Z,98943.78
2024-02-29T20:30:58.940Z,98941.41
2024-02-29T20:33:27.415Z,98943.78
2024-02-29T20:35:54.342Z,98942.97
2024-02-29T20:38:21.319Z,98946.53
2024-02-29T20:40:48.493Z,98945.53
2024-02-29T20:43:15.718Z,98933.50
2024-02-29T20:45:42.900Z,98932.53
2024-02-29T20:48:10.043Z,98947.91
2024-02-29T20:50:38.405Z,98936.66
2024-02-29T20:53:05.557Z,98939.03
2024-02-29T20:55:35.875Z,98940.19
2024-02-29T20:58:03.326Z,98930.91
2024-02-29T21:00:30.279Z,98930.31
2024-02-29T21:02:57.455Z,98936.25
2024-02-29T21:05:24.557Z,98933.88
2024-02-29T21:07:53.043Z,98931.50
2024-02-29T21:10:20.174Z,98939.00
2024-02-29T21:12:47.261Z,98948.47
2024-02-29T21:15:14.474Z,98941.75
2024-02-29T21:17:41.501Z,98937.44
2024-02-29T21:20:12.001Z,98931.09
2024-02-29T21:22:44.771Z,98931.06
2024-02-29T21:25:13.553Z,98939.75
2024-02-29T21:27:40.654Z,98937.00
2024-02-29T21:30:08.980Z,98937.81
2024-02-29T21:32:36.269Z,98927.53
2024-02-29T21:35:04.150Z,98927.94
2024-02-29T21:37:31.559Z,98918.03
2024-02-29T21:39:58.755Z,98933.22
2024-02-29T21:42:27.288Z,98919.59
2024-02-29T21:44:54.410Z,98920.75
2024-02-29T21:47:21.456Z,98928.88
2024-02-29T21:49:48.519Z,98924.69
2024-02-29T21:52:15.806Z,98928.44
2024-02-29T21:54:42.880Z,98919.19
2024-02-29T21:57:10.923Z,98927.66
2024-02-29T21:59:40.240Z,98918.75
2024-02-29T22:02:07.870Z,98912.44
2024-02-29T22:04:34.986Z,98919.34
2024-02-29T22:07:02.030Z,98919.75
2024-02-29T22:09:29.004Z,98905.69
2024-02-29T22:11:57.047Z,98910.06
2024-02-29T22:14:23.975Z,98900.19
2024-02-29T22:16:52.706Z,98900.94
2024-02-29T22:19:20.584Z,98895.78
2024-02-29T22:21:47.873Z,98901.69
2024-02-29T22:24:17.010Z,98908.41
2024-02-29T22:26:44.129Z,98901.31
2024-02-29T22:29:12.171Z,98899.13
2024-02-29T22:31:41.020Z,98898.72
2024-02-29T22:34:10.620Z,98892.03
2024-02-29T22:36:38.013Z,98899.53
2024-02-29T22:39:05.043Z,98890.06
2024-02-29T22:41:37.714Z,98889.28
2024-02-29T22:44:07.797Z,98881.59
2024-02-29T22:46:34.887Z,98883.69
2024-02-29T22:49:02.049Z,98877.19
2024-02-29T22:51:30.837Z,98877.19
2024-02-29T22:53:57.792Z,98875.00
2024-02-29T22:56:24.750Z,98867.31
2024-02-29T22:58:51.904Z,98854.28
2024-02-29T23:01:19.082Z,98874.38
2024-02-29T23:03:46.348Z,98874.56
2024-02-29T23:06:13.769Z,98872.00
2024-02-29T23:08:42.143Z,98876.31
2024-02-29T23:11:09.782Z,98873.00
2024-02-29T23:13:36.981Z,98865.31
2024-02-29T23:16:04.208Z,98871.59
2024-02-29T23:18:31.262Z,98870.00
2024-02-29T23:20:58.708Z,98865.69
2024-02-29T23:23:26.020Z,98858.78
2024-02-29T23:25:54.491Z,98872.75
2024-02-29T23:28:21.494Z,98878.25
2024-02-29T23:30:49.539Z,98874.13
2024-02-29T23:33:16.760Z,98885.16
2024-02-29T23:35:43.754Z,98880.81
2024-02-29T23:38:10.761Z,98877.06
2024-02-29T23:40:37.855Z,98877.06
2024-02-29T23:43:06.663Z,98872.13
2024-02-29T23:45:33.639Z,98879.41
2024-02-29T23:48:00.758Z,98878.22
2024-02-29T23:50:28.933Z,98871.47
2024-02-29T23:52:55.951Z,98866.34
2024-02-29T23:55:26.884Z,98862.03
2024-02-29T23:57:55.143Z,98863.78
